createdAt,value
2019-03-13T00:00:15.558Z,97936.08
2019-03-13T00:02:47.760Z,97956.41
2019-03-13T00:05:18.037Z,97956.41
2019-03-13T00:07:48.538Z,97954.78
2019-03-13T00:10:19.339Z,97958.92
2019-03-13T00:12:49.803Z,97971.18
2019-03-13T00:15:20.471Z,97981.17
2019-03-13T00:17:51.409Z,98004.43
2019-03-13T00:20:21.761Z,98004.43
2019-03-13T00:22:52.149Z,98017.11
2019-03-13T00:25:23.316Z,98021.16
2019-03-13T00:27:53.741Z,98045.03
2019-03-13T00:30:24.324Z,98075.41
2019-03-13T00:32:54.694Z,98070.81
2019-03-13T00:35:25.317Z,98090.41
2019-03-13T00:37:55.456Z,98109.23
2019-03-13T00:40:25.796Z,98105.78
2019-03-13T00:42:56.221Z,98105.78
2019-03-13T00:45:26.150Z,98142.66
2019-03-13T00:47:56.639Z,98159.48
2019-03-13T00:50:30.465Z,98168.45
2019-03-13T00:53:00.343Z,98186.27
2019-03-13T00:55:30.561Z,98194.91
2019-03-13T00:58:02.530Z,98241.42
2019-03-13T01:00:50.442Z,98241.42
2019-03-13T01:03:39.530Z,98256.95
2019-03-13T01:06:14.567Z,98277.69
2019-03-13T01:08:43.575Z,98277.69
2019-03-13T01:11:14.290Z,98293.34
2019-03-13T01:13:44.829Z,98293.34
2019-03-13T01:16:14.762Z,98301.93
2019-03-13T01:18:44.540Z,98295.06
2019-03-13T01:21:14.567Z,98283.80
2019-03-13T01:23:43.753Z,98283.80
2019-03-13T01:26:15.326Z,98299.54
2019-03-13T01:28:45.786Z,98332.34
2019-03-13T01:31:41.995Z,98332.45
2019-03-13T01:34:44.421Z,98344.95
2019-03-13T01:37:15.638Z,98356.77
2019-03-13T01:39:46.654Z,98356.77
2019-03-13T01:42:16.992Z,98361.94
2019-03-13T01:44:47.473Z,98379.02
2019-03-13T01:47:17.916Z,98368.23
2019-03-13T01:49:49.305Z,98368.23
2019-03-13T01:52:20.324Z,98394.50
2019-03-13T01:54:50.723Z,98389.55
2019-03-13T01:57:21.513Z,98386.08
2019-03-13T01:59:51.542Z,98398.58
2019-03-13T02:02:21.116Z,98396.28
2019-03-13T02:04:50.890Z,98396.09
2019-03-13T02:07:20.673Z,98396.09
2019-03-13T02:09:51.659Z,98413.23
2019-03-13T02:12:22.898Z,98414.48
2019-03-13T02:14:52.604Z,98399.23
2019-03-13T02:17:21.759Z,98422.59
2019-03-13T02:19:50.499Z,98434.42
2019-03-13T02:22:21.566Z,98430.23
2019-03-13T02:24:50.476Z,98430.23
2019-03-13T02:27:20.702Z,98413.06
2019-03-13T02:29:50.662Z,98413.06
2019-03-13T02:32:20.793Z,98432.27
2019-03-13T02:34:50.830Z,98417.52
2019-03-13T02:37:20.645Z,98414.48
2019-03-13T02:39:51.329Z,98412.86
2019-03-13T02:42:22.760Z,98423.66
2019-03-13T02:44:52.923Z,98428.20
2019-03-13T02:47:23.525Z,98431.09
2019-03-13T02:49:53.593Z,98453.73
2019-03-13T02:52:22.817Z,98453.73
2019-03-13T02:54:53.439Z,98456.75
2019-03-13T02:57:24.101Z,98450.23
2019-03-13T02:59:56.132Z,98450.23
2019-03-13T03:02:51.634Z,98457.20
2019-03-13T03:05:20.801Z,98456.27
2019-03-13T03:07:51.556Z,98461.56
2019-03-13T03:10:23.257Z,98458.06
2019-03-13T03:12:54.159Z,98452.77
2019-03-13T03:15:24.936Z,98464.48
2019-03-13T03:17:56.329Z,98468.92
2019-03-13T03:20:27.470Z,98461.96
2019-03-13T03:22:57.535Z,98458.02
2019-03-13T03:25:28.383Z,98458.02
2019-03-13T03:27:59.633Z,98452.03
2019-03-13T03:30:30.326Z,98452.03
2019-03-13T03:33:00.326Z,98457.41
2019-03-13T03:35:30.144Z,98469.09
2019-03-13T03:38:00.870Z,98463.13
2019-03-13T03:40:30.679Z,98469.80
2019-03-13T03:42:59.827Z,98479.87
2019-03-13T03:45:29.848Z,98479.87
2019-03-13T03:48:00.636Z,98490.48
2019-03-13T03:50:30.696Z,98495.91
2019-03-13T03:53:00.861Z,98492.78
2019-03-13T03:55:31.316Z,98513.55
2019-03-13T03:58:01.647Z,98514.13
2019-03-13T04:00:31.619Z,98532.55
2019-03-13T04:03:01.551Z,98538.23
2019-03-13T04:05:31.578Z,98543.53
2019-03-13T04:08:00.894Z,98543.53
2019-03-13T04:10:31.313Z,98544.70
2019-03-13T04:13:01.816Z,98551.72
2019-03-13T04:15:31.557Z,98549.48
2019-03-13T04:18:01.587Z,98542.94
2019-03-13T04:20:31.375Z,98531.19
2019-03-13T04:23:01.327Z,98540.19
2019-03-13T04:25:36.476Z,98545.52
2019-03-13T04:28:07.435Z,98557.17
2019-03-13T04:30:37.599Z,98557.17
2019-03-13T04:33:07.690Z,98561.20
2019-03-13T04:35:37.593Z,98554.69
2019-03-13T04:38:06.688Z,98561.22
2019-03-13T04:40:36.660Z,98564.42
2019-03-13T04:43:06.445Z,98577.78
2019-03-13T04:45:36.592Z,98583.65
2019-03-13T04:48:05.940Z,98588.02
2019-03-13T04:50:35.807Z,98600.41
2019-03-13T04:53:05.682Z,98596.22
2019-03-13T04:55:34.492Z,98597.00
2019-03-13T04:58:04.842Z,98600.13
2019-03-13T05:00:34.705Z,98600.13
2019-03-13T05:03:04.986Z,98587.11
2019-03-13T05:05:47.188Z,98589.09
2019-03-13T05:08:51.615Z,98584.71
2019-03-13T05:11:20.679Z,98586.31
2019-03-13T05:13:50.866Z,98586.86
2019-03-13T05:16:21.502Z,98582.55
2019-03-13T05:18:51.327Z,98592.23
2019-03-13T05:21:21.476Z,98586.41
2019-03-13T05:23:51.166Z,98584.25
2019-03-13T05:26:21.933Z,98584.25
2019-03-13T05:28:54.571Z,98576.31
2019-03-13T05:31:24.889Z,98570.44
2019-03-13T05:33:54.482Z,98573.56
2019-03-13T05:36:24.311Z,98575.57
2019-03-13T05:38:56.314Z,98582.59
2019-03-13T05:41:26.566Z,98568.78
2019-03-13T05:43:55.658Z,98576.48
2019-03-13T05:46:24.885Z,98573.69
2019-03-13T05:48:55.105Z,98574.25
2019-03-13T05:51:24.993Z,98568.74
2019-03-13T05:53:57.515Z,98575.25
2019-03-13T05:56:27.277Z,98575.44
2019-03-13T05:58:57.514Z,98575.44
2019-03-13T06:01:27.549Z,98578.32
2019-03-13T06:03:57.332Z,98571.06
2019-03-13T06:06:27.314Z,98571.06
2019-03-13T06:08:57.076Z,98581.34
2019-03-13T06:11:27.505Z,98585.59
2019-03-13T06:13:57.198Z,98587.62
2019-03-13T06:16:27.715Z,98583.58
2019-03-13T06:18:58.510Z,98580.39
2019-03-13T06:21:29.170Z,98578.45
2019-03-13T06:23:59.527Z,98573.37
2019-03-13T06:26:30.527Z,98581.05
2019-03-13T06:29:00.859Z,98577.34
2019-03-13T06:31:30.905Z,98577.34
2019-03-13T06:34:00.837Z,98585.89
2019-03-13T06:36:30.813Z,98591.00
2019-03-13T06:39:00.997Z,98587.97
2019-03-13T06:41:32.675Z,98584.39
2019-03-13T06:44:01.816Z,98586.78
2019-03-13T06:46:31.676Z,98584.21
2019-03-13T06:49:00.817Z,98581.94
2019-03-13T06:51:30.787Z,98590.10
2019-03-13T06:54:00.946Z,98593.05
2019-03-13T06:56:30.917Z,98589.16
2019-03-13T06:59:21.987Z,98587.46
2019-03-13T07:02:10.753Z,98580.89
2019-03-13T07:04:50.867Z,98577.69
2019-03-13T07:07:34.053Z,98572.41
2019-03-13T07:10:24.110Z,98567.39
2019-03-13T07:13:08.322Z,98566.98
2019-03-13T07:15:46.867Z,98570.38
2019-03-13T07:18:32.962Z,98570.38
2019-03-13T07:21:29.325Z,98562.63
2019-03-13T07:24:11.337Z,98563.22
2019-03-13T07:31:19.339Z,98562.31
2019-03-13T07:34:45.572Z,98564.73
2019-03-13T07:37:51.328Z,98577.39
2019-03-13T07:41:10.808Z,98577.39
2019-03-13T07:44:37.149Z,98579.80
2019-03-13T07:47:37.731Z,98580.11
2019-03-13T07:50:46.552Z,98570.69
2019-03-13T07:53:51.302Z,98570.69
2019-03-13T07:56:56.636Z,98555.52
2019-03-13T07:59:44.643Z,98555.52
2019-03-13T08:02:22.473Z,98560.22
2019-03-13T08:05:27.479Z,98567.32
2019-03-13T08:08:26.893Z,98560.20
2019-03-13T08:11:22.212Z,98560.20
2019-03-13T08:14:11.609Z,98570.00
2019-03-13T08:17:01.141Z,98571.59
2019-03-13T08:19:49.776Z,98560.59
2019-03-13T08:22:34.633Z,98559.13
2019-03-13T08:25:23.788Z,98567.70
2019-03-13T08:28:17.442Z,98570.44
2019-03-13T08:31:05.824Z,98563.70
2019-03-13T08:34:09.323Z,98556.39
2019-03-13T08:36:57.849Z,98576.53
2019-03-13T08:39:46.300Z,98567.78
2019-03-13T08:42:51.960Z,98573.59
2019-03-13T08:45:48.733Z,98571.06
2019-03-13T08:48:50.747Z,98588.86
2019-03-13T08:51:36.353Z,98571.92
2019-03-13T08:54:24.948Z,98574.07
2019-03-13T08:57:07.145Z,98579.64
2019-03-13T08:59:56.551Z,98574.77
2019-03-13T09:03:02.175Z,98567.23
2019-03-13T09:05:54.317Z,98574.22
2019-03-13T09:08:43.962Z,98564.53
2019-03-13T09:11:32.589Z,98565.20
2019-03-13T09:14:21.524Z,98549.44
2019-03-13T09:17:10.640Z,98560.54
2019-03-13T09:20:35.250Z,98550.64
2019-03-13T09:23:18.773Z,98546.67
2019-03-13T09:26:17.552Z,98525.36
2019-03-13T09:28:56.561Z,98551.53
2019-03-13T09:31:52.978Z,98544.13
2019-03-13T09:34:48.187Z,98544.33
2019-03-13T09:37:43.681Z,98525.94
2019-03-13T09:40:32.510Z,98518.50
2019-03-13T09:43:37.137Z,98517.39
2019-03-13T09:46:26.935Z,98517.39
2019-03-13T09:49:28.566Z,98515.04
2019-03-13T09:52:19.308Z,98503.85
2019-03-13T09:55:06.753Z,98503.85
2019-03-13T09:58:02.336Z,98507.42
2019-03-13T10:00:47.785Z,98516.28
2019-03-13T10:03:39.719Z,98511.91
2019-03-13T10:06:23.895Z,98509.78
2019-03-13T10:09:13.710Z,98519.17
2019-03-13T10:12:03.441Z,98509.45
2019-03-13T10:14:56.938Z,98507.27
2019-03-13T10:17:37.514Z,98508.65
2019-03-13T10:20:27.041Z,98509.38
2019-03-13T10:23:16.525Z,98505.77
2019-03-13T10:26:03.637Z,98501.88
2019-03-13T10:28:53.193Z,98501.88
2019-03-13T10:31:47.682Z,98509.45
2019-03-13T10:34:28.547Z,98505.67
2019-03-13T10:37:10.678Z,98509.63
2019-03-13T10:39:57.925Z,98500.98
2019-03-13T10:42:47.048Z,98502.94
2019-03-13T10:45:35.995Z,98505.40
2019-03-13T10:48:11.676Z,98489.38
2019-03-13T10:50:59.856Z,98490.16
2019-03-13T10:53:49.148Z,98487.41
2019-03-13T10:56:38.873Z,98483.10
2019-03-13T10:59:25.577Z,98501.33
2019-03-13T11:02:26.819Z,98487.23
2019-03-13T11:05:17.595Z,98499.75
2019-03-13T11:08:20.561Z,98500.47
2019-03-13T11:11:14.854Z,98491.37
2019-03-13T11:14:18.811Z,98491.70
2019-03-13T11:17:19.522Z,98496.91
2019-03-13T11:20:25.825Z,98488.13
2019-03-13T11:23:16.311Z,98473.28
2019-03-13T11:26:01.231Z,98475.81
2019-03-13T11:28:48.846Z,98474.81
2019-03-13T11:31:37.464Z,98471.70
2019-03-13T11:34:18.722Z,98469.86
2019-03-13T11:37:07.132Z,98469.86
2019-03-13T11:39:51.744Z,98476.30
2019-03-13T11:42:42.775Z,98471.19
2019-03-13T11:45:23.898Z,98470.00
2019-03-13T11:48:19.107Z,98472.09
2019-03-13T11:51:17.641Z,98476.09
2019-03-13T11:54:07.026Z,98460.19
2019-03-13T11:56:57.324Z,98458.95
2019-03-13T11:59:49.560Z,98463.23
2019-03-13T12:02:44.571Z,98455.95
2019-03-13T12:05:41.322Z,98461.17
2019-03-13T12:08:49.686Z,98461.17
2019-03-13T12:11:57.394Z,98460.45
2019-03-13T12:14:53.320Z,98460.45
2019-03-13T12:17:33.323Z,98457.56
2019-03-13T12:20:27.150Z,98459.00
2019-03-13T12:23:13.678Z,98460.23
2019-03-13T12:26:03.448Z,98447.77
2019-03-13T12:28:54.903Z,98438.98
2019-03-13T12:31:44.424Z,98438.47
2019-03-13T12:34:34.358Z,98428.31
2019-03-13T12:37:21.325Z,98428.98
2019-03-13T12:40:25.979Z,98423.74
2019-03-13T12:43:15.853Z,98428.52
2019-03-13T12:45:54.597Z,98429.13
2019-03-13T12:48:41.538Z,98423.94
2019-03-13T12:51:32.766Z,98412.84
2019-03-13T12:54:20.731Z,98412.84
2019-03-13T12:57:15.977Z,98407.59
2019-03-13T13:00:05.341Z,98408.95
2019-03-13T13:02:56.630Z,98394.04
2019-03-13T13:05:45.294Z,98386.79
2019-03-13T13:08:34.649Z,98394.48
2019-03-13T13:11:23.327Z,98395.52
2019-03-13T13:14:15.616Z,98401.89
2019-03-13T13:17:04.573Z,98396.53
2019-03-13T13:19:34.488Z,98420.44
2019-03-13T13:22:04.623Z,98433.08
2019-03-13T13:24:35.474Z,98433.08
2019-03-13T13:27:06.783Z,98453.08
2019-03-13T13:29:39.814Z,98469.81
2019-03-13T13:32:11.710Z,98475.48
2019-03-13T13:34:43.483Z,98493.63
2019-03-13T13:37:14.145Z,98437.87
2019-03-13T13:39:45.183Z,98437.87
2019-03-13T13:42:15.028Z,98434.62
2019-03-13T13:44:45.970Z,98432.58
2019-03-13T13:47:17.028Z,98439.75
2019-03-13T13:49:59.137Z,98437.48
2019-03-13T13:52:20.949Z,98428.20
2019-03-13T13:54:51.154Z,98422.30
2019-03-13T13:57:23.037Z,98424.56
2019-03-13T13:59:53.942Z,98420.95
2019-03-13T14:02:25.321Z,98414.50
2019-03-13T14:04:56.574Z,98416.16
2019-03-13T14:07:27.159Z,98406.48
2019-03-13T14:10:02.779Z,98421.47
2019-03-13T14:12:34.381Z,98420.45
2019-03-13T14:15:05.311Z,98393.13
2019-03-13T14:17:36.754Z,98393.13
2019-03-13T14:20:08.334Z,98405.12
2019-03-13T14:22:40.821Z,98409.71
2019-03-13T14:25:11.956Z,98401.49
2019-03-13T14:30:46.878Z,98389.97
2019-03-13T14:34:22.022Z,98385.28
2019-03-13T14:46:39.214Z,98374.88
2019-03-13T14:50:25.256Z,98366.62
2019-03-13T14:58:03.776Z,98350.30
2019-03-13T15:01:21.189Z,98345.17
2019-03-13T15:37:43.901Z,98339.35
2019-03-13T15:50:48.707Z,98335.05
2019-03-13T16:21:10.148Z,98315.42
2019-03-13T16:24:31.254Z,98336.34
2019-03-13T16:33:07.552Z,98340.25
2019-03-13T16:36:20.331Z,98326.58
2019-03-13T16:42:01.744Z,98316.59
2019-03-13T16:45:53.563Z,98323.44
2019-03-13T17:21:15.230Z,98322.97
2019-03-13T17:29:37.308Z,98331.53
2019-03-13T17:55:28.074Z,98295.16
2019-03-13T18:19:19.721Z,98311.09
2019-03-13T18:22:19.653Z,98319.28
2019-03-13T18:25:22.476Z,98320.72
2019-03-13T18:28:27.188Z,98314.67
2019-03-13T18:31:13.793Z,98319.34
2019-03-13T18:33:50.249Z,98312.30
2019-03-13T18:49:40.903Z,98327.84
2019-03-13T19:02:55.275Z,98345.10
2019-03-13T19:06:28.709Z,98353.99
2019-03-13T19:10:04.884Z,98367.14
2019-03-13T19:13:30.836Z,98367.72
2019-03-13T19:16:38.076Z,98385.33
2019-03-13T19:19:45.504Z,98392.92
2019-03-13T19:37:42.104Z,98389.71
2019-03-13T19:45:15.375Z,98409.25
2019-03-13T19:49:57.788Z,98417.67
2019-03-13T20:36:12.757Z,98397.45
2019-03-13T20:40:31.653Z,98407.10
2019-03-13T20:43:34.059Z,98411.27
2019-03-13T20:47:05.647Z,98417.66
2019-03-13T20:49:57.575Z,98417.66
2019-03-13T20:53:29.781Z,98418.81
2019-03-13T20:56:44.127Z,98422.21
2019-03-13T21:00:19.465Z,98411.58
2019-03-13T21:07:29.408Z,98423.92
2019-03-13T21:09:59.719Z,98422.31
2019-03-13T21:12:29.601Z,98422.06
2019-03-13T21:14:58.748Z,98422.44
2019-03-13T21:17:28.480Z,98410.30
2019-03-13T21:19:58.340Z,98426.87
2019-03-13T21:22:28.058Z,98426.87
2019-03-13T21:24:57.845Z,98411.86
2019-03-13T21:27:29.722Z,98413.09
2019-03-13T21:29:59.349Z,98413.25
2019-03-13T21:32:28.943Z,98426.05
2019-03-13T21:34:59.565Z,98416.41
2019-03-13T21:37:28.541Z,98423.45
2019-03-13T21:39:58.612Z,98423.45
2019-03-13T21:42:27.767Z,98425.97
2019-03-13T21:44:57.581Z,98433.34
2019-03-13T21:47:26.482Z,98439.82
2019-03-13T21:49:56.714Z,98445.70
2019-03-13T21:52:26.575Z,98445.70
2019-03-13T21:54:56.192Z,98449.67
2019-03-13T21:57:26.113Z,98449.67
2019-03-13T21:59:55.845Z,98464.41
2019-03-13T22:02:32.908Z,98465.28
2019-03-13T22:05:04.709Z,98468.02
2019-03-13T22:07:35.867Z,98475.92
2019-03-13T22:10:06.846Z,98477.36
2019-03-13T22:12:36.566Z,98488.80
2019-03-13T22:15:07.537Z,98487.58
2019-03-13T22:17:37.316Z,98484.92
2019-03-13T22:20:07.733Z,98484.92
2019-03-13T22:22:37.183Z,98490.61
2019-03-13T22:25:07.768Z,98499.36
2019-03-13T22:27:38.604Z,98497.91
2019-03-13T22:30:11.046Z,98490.06
2019-03-13T22:32:40.661Z,98494.65
2019-03-13T22:35:10.466Z,98499.84
2019-03-13T22:37:40.120Z,98506.22
2019-03-13T22:40:10.794Z,98510.33
2019-03-13T22:42:40.822Z,98515.48
2019-03-13T22:45:11.837Z,98514.33
2019-03-13T22:47:43.020Z,98504.00
2019-03-13T22:50:15.960Z,98513.48
2019-03-13T22:52:47.516Z,98509.70
2019-03-13T22:55:17.056Z,98520.88
2019-03-13T22:57:46.758Z,98522.93
2019-03-13T23:00:59.311Z,98523.95
2019-03-13T23:03:31.843Z,98529.05
2019-03-13T23:06:01.598Z,98535.39
2019-03-13T23:08:31.497Z,98533.73
2019-03-13T23:11:00.803Z,98538.83
2019-03-13T23:13:30.526Z,98528.04
2019-03-13T23:16:00.342Z,98538.89
2019-03-13T23:18:29.836Z,98538.89
2019-03-13T23:20:59.565Z,98547.45
2019-03-13T23:23:29.069Z,98537.81
2019-03-13T23:25:58.868Z,98537.81
2019-03-13T23:28:28.681Z,98547.41
2019-03-13T23:30:58.094Z,98541.23
2019-03-13T23:33:27.911Z,98547.73
2019-03-13T23:35:57.567Z,98555.80
2019-03-13T23:38:27.141Z,98556.31
2019-03-13T23:40:57.106Z,98558.41
2019-03-13T23:43:26.821Z,98556.80
2019-03-13T23:45:56.588Z,98569.14
2019-03-13T23:48:25.498Z,98560.81
2019-03-13T23:50:55.671Z,98564.75
2019-03-13T23:53:25.057Z,98564.75
2019-03-13T23:55:55.324Z,98569.84
2019-03-13T23:58:25.320Z,98570.52
